sensor_id;sensor_type;location;lat;lon;timestamp;temperature;humidity
66928;DHT22;59882;45.624;11.698;2023-04-09T00:01:05;12.50;63.90
66928;DHT22;59882;45.624;11.698;2023-04-09T00:03:31;12.40;64.00
66928;DHT22;59882;45.624;11.698;2023-04-09T00:05:57;12.40;64.10
66928;DHT22;59882;45.624;11.698;2023-04-09T00:08:23;12.40;64.00
66928;DHT22;59882;45.624;11.698;2023-04-09T00:10:53;12.40;64.00
66928;DHT22;59882;45.624;11.698;2023-04-09T00:13:21;12.40;64.50
66928;DHT22;59882;45.624;11.698;2023-04-09T00:15:47;12.40;64.90
66928;DHT22;59882;45.624;11.698;2023-04-09T00:18:13;12.30;65.20
66928;DHT22;59882;45.624;11.698;2023-04-09T00:20:39;12.30;65.10
66928;DHT22;59882;45.624;11.698;2023-04-09T00:23:04;12.30;65.10
66928;DHT22;59882;45.624;11.698;2023-04-09T00:25:30;12.30;65.90
66928;DHT22;59882;45.624;11.698;2023-04-09T00:27:56;12.30;65.70
66928;DHT22;59882;45.624;11.698;2023-04-09T00:30:22;12.20;65.60
66928;DHT22;59882;45.624;11.698;2023-04-09T00:32:48;12.20;65.00
66928;DHT22;59882;45.624;11.698;2023-04-09T00:35:14;12.20;64.60
66928;DHT22;59882;45.624;11.698;2023-04-09T00:37:42;12.20;64.60
66928;DHT22;59882;45.624;11.698;2023-04-09T00:40:08;12.30;64.30
66928;DHT22;59882;45.624;11.698;2023-04-09T00:42:34;12.20;64.30
66928;DHT22;59882;45.624;11.698;2023-04-09T00:45:02;12.30;64.30
66928;DHT22;59882;45.624;11.698;2023-04-09T00:47:28;12.30;64.40
66928;DHT22;59882;45.624;11.698;2023-04-09T00:49:55;12.20;64.20
66928;DHT22;59882;45.624;11.698;2023-04-09T00:52:22;12.30;64.00
66928;DHT22;59882;45.624;11.698;2023-04-09T00:54:48;12.30;64.00
66928;DHT22;59882;45.624;11.698;2023-04-09T00:57:14;12.30;64.00
66928;DHT22;59882;45.624;11.698;2023-04-09T00:59:41;12.30;64.00
66928;DHT22;59882;45.624;11.698;2023-04-09T01:02:06;12.30;64.30
66928;DHT22;59882;45.624;11.698;2023-04-09T01:04:33;12.20;64.40
66928;DHT22;59882;45.624;11.698;2023-04-09T01:07:23;12.20;64.50
66928;DHT22;59882;45.624;11.698;2023-04-09T01:10:00;12.20;64.70
66928;DHT22;59882;45.624;11.698;2023-04-09T01:12:43;12.20;64.60
66928;DHT22;59882;45.624;11.698;2023-04-09T01:15:24;12.20;65.10
66928;DHT22;59882;45.624;11.698;2023-04-09T01:18:06;12.20;64.40
66928;DHT22;59882;45.624;11.698;2023-04-09T01:20:39;12.20;64.80
66928;DHT22;59882;45.624;11.698;2023-04-09T01:23:17;12.10;65.10
66928;DHT22;59882;45.624;11.698;2023-04-09T01:26:09;12.10;65.50
66928;DHT22;59882;45.624;11.698;2023-04-09T01:28:45;12.10;65.10
66928;DHT22;59882;45.624;11.698;2023-04-09T01:31:14;12.00;65.20
66928;DHT22;59882;45.624;11.698;2023-04-09T01:33:41;12.00;65.40
66928;DHT22;59882;45.624;11.698;2023-04-09T01:36:08;11.90;65.20
66928;DHT22;59882;45.624;11.698;2023-04-09T01:38:35;11.90;65.00
66928;DHT22;59882;45.624;11.698;2023-04-09T01:41:02;11.90;65.30
66928;DHT22;59882;45.624;11.698;2023-04-09T01:43:28;11.90;65.80
66928;DHT22;59882;45.624;11.698;2023-04-09T01:45:55;11.90;65.90
66928;DHT22;59882;45.624;11.698;2023-04-09T01:48:22;11.90;65.80
66928;DHT22;59882;45.624;11.698;2023-04-09T01:50:48;11.90;65.60
66928;DHT22;59882;45.624;11.698;2023-04-09T01:53:15;11.90;65.80
66928;DHT22;59882;45.624;11.698;2023-04-09T01:55:40;11.90;65.40
66928;DHT22;59882;45.624;11.698;2023-04-09T01:58:06;11.90;65.60
66928;DHT22;59882;45.624;11.698;2023-04-09T02:00:38;11.90;65.90
66928;DHT22;59882;45.624;11.698;2023-04-09T02:03:10;11.90;65.70
66928;DHT22;59882;45.624;11.698;2023-04-09T02:08:20;11.90;65.80
66928;DHT22;59882;45.624;11.698;2023-04-09T02:10:50;11.90;65.70
66928;DHT22;59882;45.624;11.698;2023-04-09T02:13:20;11.90;65.70
66928;DHT22;59882;45.624;11.698;2023-04-09T02:15:47;11.90;65.60
66928;DHT22;59882;45.624;11.698;2023-04-09T02:18:27;11.90;65.50
66928;DHT22;59882;45.624;11.698;2023-04-09T02:20:54;11.90;65.30
66928;DHT22;59882;45.624;11.698;2023-04-09T02:23:20;11.90;65.60
66928;DHT22;59882;45.624;11.698;2023-04-09T02:25:46;11.90;65.50
66928;DHT22;59882;45.624;11.698;2023-04-09T02:28:12;11.90;65.30
66928;DHT22;59882;45.624;11.698;2023-04-09T02:30:38;11.90;65.70
66928;DHT22;59882;45.624;11.698;2023-04-09T02:33:03;11.90;65.80
66928;DHT22;59882;45.624;11.698;2023-04-09T02:35:29;11.90;65.60
66928;DHT22;59882;45.624;11.698;2023-04-09T02:37:55;11.90;65.70
66928;DHT22;59882;45.624;11.698;2023-04-09T02:40:21;11.80;65.90
66928;DHT22;59882;45.624;11.698;2023-04-09T02:42:46;11.80;66.00
66928;DHT22;59882;45.624;11.698;2023-04-09T02:45:12;11.80;66.00
66928;DHT22;59882;45.624;11.698;2023-04-09T02:47:37;11.80;66.40
66928;DHT22;59882;45.624;11.698;2023-04-09T02:50:04;11.80;66.00
66928;DHT22;59882;45.624;11.698;2023-04-09T02:52:30;11.80;65.80
66928;DHT22;59882;45.624;11.698;2023-04-09T02:54:56;11.70;66.40
66928;DHT22;59882;45.624;11.698;2023-04-09T02:57:21;11.70;66.50
66928;DHT22;59882;45.624;11.698;2023-04-09T02:59:47;11.70;67.20
66928;DHT22;59882;45.624;11.698;2023-04-09T03:02:12;11.70;66.60
66928;DHT22;59882;45.624;11.698;2023-04-09T03:04:38;11.70;66.50
66928;DHT22;59882;45.624;11.698;2023-04-09T03:07:07;11.60;66.30
66928;DHT22;59882;45.624;11.698;2023-04-09T03:09:33;11.60;66.70
66928;DHT22;59882;45.624;11.698;2023-04-09T03:11:58;11.60;66.30
66928;DHT22;59882;45.624;11.698;2023-04-09T03:14:24;11.60;66.50
66928;DHT22;59882;45.624;11.698;2023-04-09T03:16:49;11.60;66.30
66928;DHT22;59882;45.624;11.698;2023-04-09T03:19:15;11.60;66.30
66928;DHT22;59882;45.624;11.698;2023-04-09T03:21:41;11.60;66.30
66928;DHT22;59882;45.624;11.698;2023-04-09T03:24:06;11.60;66.70
66928;DHT22;59882;45.624;11.698;2023-04-09T03:26:32;11.50;66.60
66928;DHT22;59882;45.624;11.698;2023-04-09T03:29:04;11.50;66.70
66928;DHT22;59882;45.624;11.698;2023-04-09T03:31:31;11.50;66.70
66928;DHT22;59882;45.624;11.698;2023-04-09T03:33:57;11.50;66.40
66928;DHT22;59882;45.624;11.698;2023-04-09T03:36:22;11.40;66.50
66928;DHT22;59882;45.624;11.698;2023-04-09T03:38:48;11.40;66.40
66928;DHT22;59882;45.624;11.698;2023-04-09T03:41:14;11.40;66.40
66928;DHT22;59882;45.624;11.698;2023-04-09T03:43:40;11.40;65.90
66928;DHT22;59882;45.624;11.698;2023-04-09T03:46:13;11.40;66.10
66928;DHT22;59882;45.624;11.698;2023-04-09T03:48:38;11.40;66.10
66928;DHT22;59882;45.624;11.698;2023-04-09T03:51:04;11.40;66.00
66928;DHT22;59882;45.624;11.698;2023-04-09T03:53:30;11.30;65.90
66928;DHT22;59882;45.624;11.698;2023-04-09T03:55:55;11.30;66.10
66928;DHT22;59882;45.624;11.698;2023-04-09T03:58:21;11.30;66.20
66928;DHT22;59882;45.624;11.698;2023-04-09T04:00:46;11.30;66.20
66928;DHT22;59882;45.624;11.698;2023-04-09T04:03:13;11.30;66.30
66928;DHT22;59882;45.624;11.698;2023-04-09T04:05:40;11.30;66.40
66928;DHT22;59882;45.624;11.698;2023-04-09T04:08:06;11.30;66.30
66928;DHT22;59882;45.624;11.698;2023-04-09T04:10:33;11.30;66.10
66928;DHT22;59882;45.624;11.698;2023-04-09T04:12:59;11.30;66.30
66928;DHT22;59882;45.624;11.698;2023-04-09T04:15:26;11.30;66.60
66928;DHT22;59882;45.624;11.698;2023-04-09T04:17:52;11.30;66.80
66928;DHT22;59882;45.624;11.698;2023-04-09T04:20:18;11.30;66.70
66928;DHT22;59882;45.624;11.698;2023-04-09T04:22:43;11.30;66.80
66928;DHT22;59882;45.624;11.698;2023-04-09T04:25:09;11.30;66.70
66928;DHT22;59882;45.624;11.698;2023-04-09T04:27:35;11.30;66.70
66928;DHT22;59882;45.624;11.698;2023-04-09T04:30:00;11.20;66.80
66928;DHT22;59882;45.624;11.698;2023-04-09T04:32:27;11.20;66.70
66928;DHT22;59882;45.624;11.698;2023-04-09T04:34:52;11.20;66.70
66928;DHT22;59882;45.624;11.698;2023-04-09T04:37:18;11.10;66.60
66928;DHT22;59882;45.624;11.698;2023-04-09T04:39:44;11.10;66.90
66928;DHT22;59882;45.624;11.698;2023-04-09T04:42:09;11.10;66.90
66928;DHT22;59882;45.624;11.698;2023-04-09T04:44:35;11.10;67.10
66928;DHT22;59882;45.624;11.698;2023-04-09T04:47:00;11.10;66.90
66928;DHT22;59882;45.624;11.698;2023-04-09T04:49:26;11.10;66.90
66928;DHT22;59882;45.624;11.698;2023-04-09T04:51:51;11.10;67.00
66928;DHT22;59882;45.624;11.698;2023-04-09T04:54:17;11.10;67.30
66928;DHT22;59882;45.624;11.698;2023-04-09T04:56:43;11.10;67.10
66928;DHT22;59882;45.624;11.698;2023-04-09T04:59:08;11.10;67.20
66928;DHT22;59882;45.624;11.698;2023-04-09T05:01:34;11.10;67.30
66928;DHT22;59882;45.624;11.698;2023-04-09T05:03:59;11.00;67.50
66928;DHT22;59882;45.624;11.698;2023-04-09T05:06:27;11.00;67.40
66928;DHT22;59882;45.624;11.698;2023-04-09T05:08:54;11.00;68.00
66928;DHT22;59882;45.624;11.698;2023-04-09T05:11:26;11.10;67.60
66928;DHT22;59882;45.624;11.698;2023-04-09T05:13:51;11.00;67.70
66928;DHT22;59882;45.624;11.698;2023-04-09T05:16:18;11.00;67.60
66928;DHT22;59882;45.624;11.698;2023-04-09T05:18:44;11.10;67.60
66928;DHT22;59882;45.624;11.698;2023-04-09T05:21:10;11.10;67.50
66928;DHT22;59882;45.624;11.698;2023-04-09T05:23:35;11.00;67.70
66928;DHT22;59882;45.624;11.698;2023-04-09T05:26:01;11.00;68.10
66928;DHT22;59882;45.624;11.698;2023-04-09T05:28:27;11.00;67.50
66928;DHT22;59882;45.624;11.698;2023-04-09T05:30:52;11.00;68.30
66928;DHT22;59882;45.624;11.698;2023-04-09T05:33:18;11.00;67.90
66928;DHT22;59882;45.624;11.698;2023-04-09T05:35:43;11.00;68.80
66928;DHT22;59882;45.624;11.698;2023-04-09T05:38:09;11.00;68.70
66928;DHT22;59882;45.624;11.698;2023-04-09T05:40:35;11.10;68.80
66928;DHT22;59882;45.624;11.698;2023-04-09T05:43:01;11.10;68.30
66928;DHT22;59882;45.624;11.698;2023-04-09T05:45:27;11.10;69.10
66928;DHT22;59882;45.624;11.698;2023-04-09T05:47:53;11.20;68.80
66928;DHT22;59882;45.624;11.698;2023-04-09T05:50:19;11.10;68.70
66928;DHT22;59882;45.624;11.698;2023-04-09T05:52:45;11.20;68.60
66928;DHT22;59882;45.624;11.698;2023-04-09T05:55:10;11.20;68.90
66928;DHT22;59882;45.624;11.698;2023-04-09T05:57:36;11.30;69.00
66928;DHT22;59882;45.624;11.698;2023-04-09T06:00:02;11.30;68.90
66928;DHT22;59882;45.624;11.698;2023-04-09T06:02:28;11.30;69.00
66928;DHT22;59882;45.624;11.698;2023-04-09T06:04:54;11.40;68.60
66928;DHT22;59882;45.624;11.698;2023-04-09T06:07:19;11.40;68.50
66928;DHT22;59882;45.624;11.698;2023-04-09T06:09:45;11.40;68.60
66928;DHT22;59882;45.624;11.698;2023-04-09T06:12:11;11.50;68.20
66928;DHT22;59882;45.624;11.698;2023-04-09T06:14:38;11.50;68.20
66928;DHT22;59882;45.624;11.698;2023-04-09T06:17:03;11.60;68.10
66928;DHT22;59882;45.624;11.698;2023-04-09T06:19:29;11.60;67.60
66928;DHT22;59882;45.624;11.698;2023-04-09T06:21:55;11.60;67.80
66928;DHT22;59882;45.624;11.698;2023-04-09T06:24:20;11.70;68.00
66928;DHT22;59882;45.624;11.698;2023-04-09T06:26:46;11.80;67.60
66928;DHT22;59882;45.624;11.698;2023-04-09T06:29:12;11.80;67.20
66928;DHT22;59882;45.624;11.698;2023-04-09T06:31:37;11.90;66.70
66928;DHT22;59882;45.624;11.698;2023-04-09T06:34:03;11.90;66.30
66928;DHT22;59882;45.624;11.698;2023-04-09T06:36:28;12.00;66.10
66928;DHT22;59882;45.624;11.698;2023-04-09T06:38:54;12.10;65.80
66928;DHT22;59882;45.624;11.698;2023-04-09T06:41:22;12.10;65.70
66928;DHT22;59882;45.624;11.698;2023-04-09T06:43:48;12.20;65.20
66928;DHT22;59882;45.624;11.698;2023-04-09T06:46:14;12.20;64.70
66928;DHT22;59882;45.624;11.698;2023-04-09T06:48:42;12.30;64.30
66928;DHT22;59882;45.624;11.698;2023-04-09T06:51:09;12.30;63.80
66928;DHT22;59882;45.624;11.698;2023-04-09T06:53:36;12.30;62.70
66928;DHT22;59882;45.624;11.698;2023-04-09T06:56:02;12.30;63.10
66928;DHT22;59882;45.624;11.698;2023-04-09T06:58:28;12.30;63.60
66928;DHT22;59882;45.624;11.698;2023-04-09T07:00:53;12.40;64.20
66928;DHT22;59882;45.624;11.698;2023-04-09T07:03:19;12.40;63.80
66928;DHT22;59882;45.624;11.698;2023-04-09T07:05:45;12.40;62.40
66928;DHT22;59882;45.624;11.698;2023-04-09T07:08:11;12.40;61.60
66928;DHT22;59882;45.624;11.698;2023-04-09T07:10:37;12.40;62.40
66928;DHT22;59882;45.624;11.698;2023-04-09T07:13:02;12.40;63.00
66928;DHT22;59882;45.624;11.698;2023-04-09T07:15:28;12.40;62.10
66928;DHT22;59882;45.624;11.698;2023-04-09T07:17:54;12.40;62.00
66928;DHT22;59882;45.624;11.698;2023-04-09T07:20:19;12.40;62.10
66928;DHT22;59882;45.624;11.698;2023-04-09T07:22:45;12.40;62.10
66928;DHT22;59882;45.624;11.698;2023-04-09T07:25:10;12.40;62.10
66928;DHT22;59882;45.624;11.698;2023-04-09T07:27:36;12.40;61.80
66928;DHT22;59882;45.624;11.698;2023-04-09T07:30:02;12.40;61.80
66928;DHT22;59882;45.624;11.698;2023-04-09T07:32:28;12.40;61.70
66928;DHT22;59882;45.624;11.698;2023-04-09T07:34:55;12.40;61.70
66928;DHT22;59882;45.624;11.698;2023-04-09T07:37:22;12.30;61.50
66928;DHT22;59882;45.624;11.698;2023-04-09T07:39:48;12.30;61.80
66928;DHT22;59882;45.624;11.698;2023-04-09T07:42:14;12.20;61.60
66928;DHT22;59882;45.624;11.698;2023-04-09T07:44:40;12.20;61.60
66928;DHT22;59882;45.624;11.698;2023-04-09T07:47:06;12.10;61.60
66928;DHT22;59882;45.624;11.698;2023-04-09T07:49:34;12.20;61.80
66928;DHT22;59882;45.624;11.698;2023-04-09T07:52:00;12.20;61.70
66928;DHT22;59882;45.624;11.698;2023-04-09T07:54:26;12.20;61.70
66928;DHT22;59882;45.624;11.698;2023-04-09T07:56:52;12.20;61.70
66928;DHT22;59882;45.624;11.698;2023-04-09T07:59:18;12.20;61.70
66928;DHT22;59882;45.624;11.698;2023-04-09T08:01:44;12.20;61.50
66928;DHT22;59882;45.624;11.698;2023-04-09T08:04:10;12.20;61.30
66928;DHT22;59882;45.624;11.698;2023-04-09T08:06:37;12.30;60.50
66928;DHT22;59882;45.624;11.698;2023-04-09T08:09:02;12.30;60.80
66928;DHT22;59882;45.624;11.698;2023-04-09T08:11:28;12.30;60.10
66928;DHT22;59882;45.624;11.698;2023-04-09T08:13:54;12.40;58.90
66928;DHT22;59882;45.624;11.698;2023-04-09T08:16:20;12.40;58.50
66928;DHT22;59882;45.624;11.698;2023-04-09T08:18:48;12.40;58.40
66928;DHT22;59882;45.624;11.698;2023-04-09T08:21:14;12.40;57.50
66928;DHT22;59882;45.624;11.698;2023-04-09T08:23:39;12.40;57.70
66928;DHT22;59882;45.624;11.698;2023-04-09T08:26:05;12.40;57.20
66928;DHT22;59882;45.624;11.698;2023-04-09T08:28:31;12.50;56.40
66928;DHT22;59882;45.624;11.698;2023-04-09T08:30:56;12.50;56.50
66928;DHT22;59882;45.624;11.698;2023-04-09T08:33:22;12.50;56.90
66928;DHT22;59882;45.624;11.698;2023-04-09T08:35:48;12.60;56.50
66928;DHT22;59882;45.624;11.698;2023-04-09T08:38:14;12.60;56.70
66928;DHT22;59882;45.624;11.698;2023-04-09T08:40:40;12.60;55.60
66928;DHT22;59882;45.624;11.698;2023-04-09T08:43:07;12.60;56.30
66928;DHT22;59882;45.624;11.698;2023-04-09T08:45:33;12.70;54.60
66928;DHT22;59882;45.624;11.698;2023-04-09T08:48:02;12.70;55.00
66928;DHT22;59882;45.624;11.698;2023-04-09T08:50:31;12.80;55.30
66928;DHT22;59882;45.624;11.698;2023-04-09T08:52:59;12.80;54.80
66928;DHT22;59882;45.624;11.698;2023-04-09T08:55:26;12.80;54.50
66928;DHT22;59882;45.624;11.698;2023-04-09T08:57:52;12.80;53.50
66928;DHT22;59882;45.624;11.698;2023-04-09T09:00:17;12.80;53.40
66928;DHT22;59882;45.624;11.698;2023-04-09T09:03:04;12.80;53.60
66928;DHT22;59882;45.624;11.698;2023-04-09T09:05:40;12.80;53.60
66928;DHT22;59882;45.624;11.698;2023-04-09T09:08:07;12.90;53.00
66928;DHT22;59882;45.624;11.698;2023-04-09T09:10:51;12.90;51.20
66928;DHT22;59882;45.624;11.698;2023-04-09T09:13:18;12.90;50.60
66928;DHT22;59882;45.624;11.698;2023-04-09T09:15:44;12.90;52.10
66928;DHT22;59882;45.624;11.698;2023-04-09T09:18:12;12.90;52.50
66928;DHT22;59882;45.624;11.698;2023-04-09T09:20:38;13.10;52.60
66928;DHT22;59882;45.624;11.698;2023-04-09T09:23:04;13.10;52.20
66928;DHT22;59882;45.624;11.698;2023-04-09T09:25:36;13.20;53.10
66928;DHT22;59882;45.624;11.698;2023-04-09T09:28:08;13.30;52.90
66928;DHT22;59882;45.624;11.698;2023-04-09T09:30:33;13.30;52.30
66928;DHT22;59882;45.624;11.698;2023-04-09T09:33:10;13.40;53.00
66928;DHT22;59882;45.624;11.698;2023-04-09T09:35:46;13.40;50.80
66928;DHT22;59882;45.624;11.698;2023-04-09T09:38:13;13.50;52.30
66928;DHT22;59882;45.624;11.698;2023-04-09T09:40:40;13.60;52.70
66928;DHT22;59882;45.624;11.698;2023-04-09T09:43:06;13.70;52.00
66928;DHT22;59882;45.624;11.698;2023-04-09T09:45:32;13.70;50.90
66928;DHT22;59882;45.624;11.698;2023-04-09T09:47:58;13.80;50.10
66928;DHT22;59882;45.624;11.698;2023-04-09T09:50:24;13.80;51.10
66928;DHT22;59882;45.624;11.698;2023-04-09T09:52:56;13.90;50.70
66928;DHT22;59882;45.624;11.698;2023-04-09T09:55:24;13.90;51.40
66928;DHT22;59882;45.624;11.698;2023-04-09T09:57:51;14.00;50.50
66928;DHT22;59882;45.624;11.698;2023-04-09T10:00:19;14.10;50.20
66928;DHT22;59882;45.624;11.698;2023-04-09T10:02:56;14.10;49.70
66928;DHT22;59882;45.624;11.698;2023-04-09T10:05:23;14.10;50.40
66928;DHT22;59882;45.624;11.698;2023-04-09T10:07:56;14.20;50.00
66928;DHT22;59882;45.624;11.698;2023-04-09T10:10:23;14.30;49.00
66928;DHT22;59882;45.624;11.698;2023-04-09T10:12:50;14.30;48.00
66928;DHT22;59882;45.624;11.698;2023-04-09T10:15:18;14.50;49.00
66928;DHT22;59882;45.624;11.698;2023-04-09T10:17:44;14.60;51.50
66928;DHT22;59882;45.624;11.698;2023-04-09T10:20:15;14.90;49.10
66928;DHT22;59882;45.624;11.698;2023-04-09T10:22:43;15.10;49.50
66928;DHT22;59882;45.624;11.698;2023-04-09T10:25:10;15.20;48.10
66928;DHT22;59882;45.624;11.698;2023-04-09T10:27:36;15.30;48.00
66928;DHT22;59882;45.624;11.698;2023-04-09T10:30:01;15.30;48.60
66928;DHT22;59882;45.624;11.698;2023-04-09T10:32:34;15.40;48.30
66928;DHT22;59882;45.624;11.698;2023-04-09T10:35:02;15.50;47.30
66928;DHT22;59882;45.624;11.698;2023-04-09T10:37:28;15.40;46.90
66928;DHT22;59882;45.624;11.698;2023-04-09T10:39:55;15.40;47.00
66928;DHT22;59882;45.624;11.698;2023-04-09T10:42:25;15.30;47.00
66928;DHT22;59882;45.624;11.698;2023-04-09T10:45:13;15.30;48.00
66928;DHT22;59882;45.624;11.698;2023-04-09T10:47:40;15.40;48.70
66928;DHT22;59882;45.624;11.698;2023-04-09T10:50:26;15.40;48.00
66928;DHT22;59882;45.624;11.698;2023-04-09T10:52:53;15.40;48.00
66928;DHT22;59882;45.624;11.698;2023-04-09T10:55:39;15.50;47.90
66928;DHT22;59882;45.624;11.698;2023-04-09T10:58:06;15.60;47.90
66928;DHT22;59882;45.624;11.698;2023-04-09T11:00:36;15.60;48.40
66928;DHT22;59882;45.624;11.698;2023-04-09T11:05:35;15.80;47.20
66928;DHT22;59882;45.624;11.698;2023-04-09T11:08:06;15.80;47.40
66928;DHT22;59882;45.624;11.698;2023-04-09T11:10:34;15.90;47.30
66928;DHT22;59882;45.624;11.698;2023-04-09T11:13:00;15.90;47.50
66928;DHT22;59882;45.624;11.698;2023-04-09T11:15:26;15.90;47.70
66928;DHT22;59882;45.624;11.698;2023-04-09T11:17:52;16.00;46.40
66928;DHT22;59882;45.624;11.698;2023-04-09T11:20:23;16.00;45.70
66928;DHT22;59882;45.624;11.698;2023-04-09T11:22:51;16.00;46.40
66928;DHT22;59882;45.624;11.698;2023-04-09T11:25:21;16.00;46.20
66928;DHT22;59882;45.624;11.698;2023-04-09T11:27:47;16.00;46.40
66928;DHT22;59882;45.624;11.698;2023-04-09T11:30:13;16.10;45.70
66928;DHT22;59882;45.624;11.698;2023-04-09T11:32:39;16.20;46.30
66928;DHT22;59882;45.624;11.698;2023-04-09T11:35:13;16.40;47.50
66928;DHT22;59882;45.624;11.698;2023-04-09T11:37:40;16.50;47.50
66928;DHT22;59882;45.624;11.698;2023-04-09T11:40:07;16.60;46.30
66928;DHT22;59882;45.624;11.698;2023-04-09T11:42:34;16.80;46.20
66928;DHT22;59882;45.624;11.698;2023-04-09T11:45:02;16.90;46.40
66928;DHT22;59882;45.624;11.698;2023-04-09T11:47:28;17.20;46.00
66928;DHT22;59882;45.624;11.698;2023-04-09T11:49:54;17.40;44.50
66928;DHT22;59882;45.624;11.698;2023-04-09T11:52:20;17.60;43.70
66928;DHT22;59882;45.624;11.698;2023-04-09T11:54:48;17.70;43.60
66928;DHT22;59882;45.624;11.698;2023-04-09T11:57:14;17.90;41.00
66928;DHT22;59882;45.624;11.698;2023-04-09T11:59:40;17.80;42.20
66928;DHT22;59882;45.624;11.698;2023-04-09T12:02:06;17.90;42.30
66928;DHT22;59882;45.624;11.698;2023-04-09T12:04:32;17.90;42.40
66928;DHT22;59882;45.624;11.698;2023-04-09T12:06:58;18.10;42.70
66928;DHT22;59882;45.624;11.698;2023-04-09T12:09:24;18.30;40.40
66928;DHT22;59882;45.624;11.698;2023-04-09T12:11:50;18.40;40.70
66928;DHT22;59882;45.624;11.698;2023-04-09T12:14:16;18.50;41.40
66928;DHT22;59882;45.624;11.698;2023-04-09T12:16:42;18.50;38.10
66928;DHT22;59882;45.624;11.698;2023-04-09T12:19:10;18.40;39.40
66928;DHT22;59882;45.624;11.698;2023-04-09T12:21:49;18.30;40.60
66928;DHT22;59882;45.624;11.698;2023-04-09T12:24:17;18.40;41.30
66928;DHT22;59882;45.624;11.698;2023-04-09T12:26:44;18.50;39.70
66928;DHT22;59882;45.624;11.698;2023-04-09T12:29:10;18.70;38.30
66928;DHT22;59882;45.624;11.698;2023-04-09T12:31:36;18.70;38.80
66928;DHT22;59882;45.624;11.698;2023-04-09T12:34:02;18.80;38.10
66928;DHT22;59882;45.624;11.698;2023-04-09T12:36:27;18.90;37.80
66928;DHT22;59882;45.624;11.698;2023-04-09T12:38:54;19.20;37.30
66928;DHT22;59882;45.624;11.698;2023-04-09T12:41:20;20.00;38.20
66928;DHT22;59882;45.624;11.698;2023-04-09T12:43:45;20.80;35.20
66928;DHT22;59882;45.624;11.698;2023-04-09T12:46:12;21.10;34.30
66928;DHT22;59882;45.624;11.698;2023-04-09T12:48:38;21.10;34.50
66928;DHT22;59882;45.624;11.698;2023-04-09T12:51:04;20.90;35.30
66928;DHT22;59882;45.624;11.698;2023-04-09T12:53:30;20.70;35.50
66928;DHT22;59882;45.624;11.698;2023-04-09T12:55:56;20.50;35.20
66928;DHT22;59882;45.624;11.698;2023-04-09T12:58:22;20.30;34.90
66928;DHT22;59882;45.624;11.698;2023-04-09T13:00:48;20.20;36.20
66928;DHT22;59882;45.624;11.698;2023-04-09T13:03:14;20.10;36.00
66928;DHT22;59882;45.624;11.698;2023-04-09T13:05:42;19.90;36.40
66928;DHT22;59882;45.624;11.698;2023-04-09T13:08:08;19.70;35.10
66928;DHT22;59882;45.624;11.698;2023-04-09T13:10:33;19.40;36.00
66928;DHT22;59882;45.624;11.698;2023-04-09T13:13:00;19.20;36.30
66928;DHT22;59882;45.624;11.698;2023-04-09T13:15:25;18.90;37.20
66928;DHT22;59882;45.624;11.698;2023-04-09T13:17:51;18.70;37.90
66928;DHT22;59882;45.624;11.698;2023-04-09T13:20:17;18.50;37.70
66928;DHT22;59882;45.624;11.698;2023-04-09T13:22:44;18.30;38.00
66928;DHT22;59882;45.624;11.698;2023-04-09T13:25:16;18.20;38.40
66928;DHT22;59882;45.624;11.698;2023-04-09T13:27:42;17.90;38.70
66928;DHT22;59882;45.624;11.698;2023-04-09T13:30:08;17.80;38.80
66928;DHT22;59882;45.624;11.698;2023-04-09T13:32:33;17.60;39.70
66928;DHT22;59882;45.624;11.698;2023-04-09T13:34:59;17.50;40.60
66928;DHT22;59882;45.624;11.698;2023-04-09T13:37:25;17.40;40.90
66928;DHT22;59882;45.624;11.698;2023-04-09T13:39:50;17.30;40.40
66928;DHT22;59882;45.624;11.698;2023-04-09T13:42:17;17.30;40.60
66928;DHT22;59882;45.624;11.698;2023-04-09T13:44:43;17.20;40.00
66928;DHT22;59882;45.624;11.698;2023-04-09T13:47:13;17.00;40.50
66928;DHT22;59882;45.624;11.698;2023-04-09T13:49:40;17.00;40.80
66928;DHT22;59882;45.624;11.698;2023-04-09T13:52:06;16.90;40.70
66928;DHT22;59882;45.624;11.698;2023-04-09T13:54:33;16.90;40.60
66928;DHT22;59882;45.624;11.698;2023-04-09T13:56:59;16.80;41.60
66928;DHT22;59882;45.624;11.698;2023-04-09T13:59:25;16.70;41.30
66928;DHT22;59882;45.624;11.698;2023-04-09T14:01:50;16.60;41.40
66928;DHT22;59882;45.624;11.698;2023-04-09T14:04:16;16.50;41.80
66928;DHT22;59882;45.624;11.698;2023-04-09T14:06:42;16.50;42.00
66928;DHT22;59882;45.624;11.698;2023-04-09T14:09:09;16.40;42.30
66928;DHT22;59882;45.624;11.698;2023-04-09T14:11:34;16.40;42.60
66928;DHT22;59882;45.624;11.698;2023-04-09T14:14:01;16.30;43.80
66928;DHT22;59882;45.624;11.698;2023-04-09T14:16:26;16.20;44.10
66928;DHT22;59882;45.624;11.698;2023-04-09T14:18:52;16.20;44.80
66928;DHT22;59882;45.624;11.698;2023-04-09T14:21:18;16.10;45.60
66928;DHT22;59882;45.624;11.698;2023-04-09T14:23:44;15.90;48.40
66928;DHT22;59882;45.624;11.698;2023-04-09T14:26:10;15.80;49.10
66928;DHT22;59882;45.624;11.698;2023-04-09T14:28:35;15.80;50.90
66928;DHT22;59882;45.624;11.698;2023-04-09T14:31:02;15.70;51.10
66928;DHT22;59882;45.624;11.698;2023-04-09T14:33:28;15.70;52.10
66928;DHT22;59882;45.624;11.698;2023-04-09T14:35:54;15.60;52.80
66928;DHT22;59882;45.624;11.698;2023-04-09T14:38:19;15.60;53.80
66928;DHT22;59882;45.624;11.698;2023-04-09T14:40:45;15.60;53.00
66928;DHT22;59882;45.624;11.698;2023-04-09T14:43:11;15.50;53.00
66928;DHT22;59882;45.624;11.698;2023-04-09T14:45:36;15.50;55.20
66928;DHT22;59882;45.624;11.698;2023-04-09T14:48:02;15.50;55.60
66928;DHT22;59882;45.624;11.698;2023-04-09T14:50:29;15.40;55.90
66928;DHT22;59882;45.624;11.698;2023-04-09T14:52:56;15.40;54.90
66928;DHT22;59882;45.624;11.698;2023-04-09T14:55:22;15.40;54.20
66928;DHT22;59882;45.624;11.698;2023-04-09T14:57:50;15.40;55.20
66928;DHT22;59882;45.624;11.698;2023-04-09T15:00:15;15.40;54.00
66928;DHT22;59882;45.624;11.698;2023-04-09T15:02:41;15.30;54.00
66928;DHT22;59882;45.624;11.698;2023-04-09T15:05:07;15.40;54.00
66928;DHT22;59882;45.624;11.698;2023-04-09T15:07:33;15.50;54.40
66928;DHT22;59882;45.624;11.698;2023-04-09T15:09:58;15.60;54.60
66928;DHT22;59882;45.624;11.698;2023-04-09T15:12:33;15.80;55.10
66928;DHT22;59882;45.624;11.698;2023-04-09T15:14:59;15.90;55.00
66928;DHT22;59882;45.624;11.698;2023-04-09T15:17:25;16.10;54.60
66928;DHT22;59882;45.624;11.698;2023-04-09T15:19:52;16.20;55.00